createdAt,value
2018-09-11T00:01:10.200Z,84.11
2018-09-11T00:03:44.868Z,85.00
2018-09-11T00:06:19.345Z,85.66
2018-09-11T00:08:53.989Z,85.92
2018-09-11T00:11:28.650Z,85.26
2018-09-11T00:14:03.265Z,85.72
2018-09-11T00:16:37.836Z,86.11
2018-09-11T00:19:12.425Z,86.46
2018-09-11T00:21:46.952Z,86.48
2018-09-11T00:24:21.456Z,86.69
2018-09-11T00:26:56.166Z,86.06
2018-09-11T00:29:30.862Z,85.79
2018-09-11T00:32:05.454Z,85.59
2018-09-11T00:34:39.980Z,86.23
2018-09-11T00:37:14.587Z,85.63
2018-09-11T00:39:49.213Z,85.22
2018-09-11T00:42:23.972Z,84.84
2018-09-11T00:44:58.663Z,84.73
2018-09-11T00:47:33.204Z,84.09
2018-09-11T00:50:07.989Z,84.71
2018-09-11T00:52:42.561Z,84.21
2018-09-11T00:55:17.300Z,83.49
2018-09-11T00:57:51.989Z,82.75
2018-09-11T01:00:26.629Z,83.07
2018-09-11T01:03:01.247Z,82.54
2018-09-11T01:05:35.851Z,81.93
2018-09-11T01:08:10.514Z,82.58
2018-09-11T01:10:45.066Z,82.73
2018-09-11T01:13:19.553Z,82.22
2018-09-11T01:15:54.168Z,82.20
2018-09-11T01:18:28.850Z,82.40
2018-09-11T01:21:03.406Z,82.30
2018-09-11T01:23:37.913Z,82.54
2018-09-11T01:26:12.580Z,82.43
2018-09-11T01:28:47.196Z,82.43
2018-09-11T01:31:21.836Z,82.76
2018-09-11T01:33:56.577Z,82.59
2018-09-11T01:36:31.326Z,82.20
2018-09-11T01:39:08.649Z,83.11
2018-09-11T01:41:43.317Z,82.98
2018-09-11T01:44:17.857Z,83.13
2018-09-11T01:46:52.558Z,82.86
2018-09-11T01:49:27.087Z,83.11
2018-09-11T01:52:01.740Z,82.99
2018-09-11T01:54:36.356Z,82.98
2018-09-11T01:57:11.073Z,83.52
2018-09-11T01:59:45.934Z,82.93
2018-09-11T02:02:20.925Z,83.27
2018-09-11T02:04:55.445Z,83.06
2018-09-11T02:07:29.984Z,83.37
2018-09-11T02:10:04.418Z,83.28
2018-09-11T02:12:39.086Z,83.84
2018-09-11T02:15:13.607Z,83.37
2018-09-11T02:17:48.334Z,83.89
2018-09-11T02:20:23.079Z,84.05
2018-09-11T02:22:57.849Z,83.95
2018-09-11T02:25:32.562Z,83.55
2018-09-11T02:28:07.225Z,83.86
2018-09-11T02:30:41.893Z,83.26
2018-09-11T02:33:16.912Z,83.78
2018-09-11T02:35:51.535Z,83.11
2018-09-11T02:38:26.061Z,83.71
2018-09-11T02:41:00.722Z,83.54
2018-09-11T02:43:35.317Z,82.97
2018-09-11T02:46:09.862Z,83.04
2018-09-11T02:48:44.566Z,83.33
2018-09-11T02:51:18.996Z,83.45
2018-09-11T02:53:53.584Z,83.77
2018-09-11T02:56:28.193Z,83.79
2018-09-11T02:59:02.893Z,83.92
2018-09-11T03:01:37.525Z,84.04
2018-09-11T03:04:12.140Z,84.71
2018-09-11T03:06:46.723Z,84.54
2018-09-11T03:09:21.754Z,84.25
2018-09-11T03:11:56.265Z,84.37
2018-09-11T03:14:30.832Z,84.18
2018-09-11T03:17:05.345Z,84.40
2018-09-11T03:19:39.797Z,85.24
2018-09-11T03:22:14.428Z,84.78
2018-09-11T03:24:48.964Z,85.15
2018-09-11T03:27:23.368Z,85.34
2018-09-11T03:29:57.952Z,85.37
2018-09-11T03:32:32.617Z,85.79
2018-09-11T03:35:08.556Z,86.21
2018-09-11T03:37:43.052Z,85.95
2018-09-11T03:40:17.698Z,85.76
2018-09-11T03:42:52.181Z,85.07
2018-09-11T03:45:26.744Z,84.17
2018-09-11T03:48:01.437Z,83.77
2018-09-11T03:50:36.065Z,83.69
2018-09-11T03:53:10.761Z,83.14
2018-09-11T03:55:45.861Z,83.28
2018-09-11T03:58:20.393Z,83.03
2018-09-11T04:00:55.089Z,82.92
2018-09-11T04:03:29.693Z,83.02
2018-09-11T04:06:04.421Z,82.69
2018-09-11T04:08:38.856Z,82.44
2018-09-11T04:11:13.480Z,82.85
2018-09-11T04:13:48.037Z,82.09
2018-09-11T04:16:22.749Z,82.00
2018-09-11T04:18:57.371Z,81.52
2018-09-11T04:21:32.233Z,81.37
2018-09-11T04:24:06.767Z,81.71
2018-09-11T04:26:41.440Z,81.76
2018-09-11T04:29:16.120Z,81.32
2018-09-11T04:31:50.749Z,81.25
2018-09-11T04:34:25.320Z,81.23
2018-09-11T04:37:00.025Z,80.68
2018-09-11T04:39:34.569Z,80.25
2018-09-11T04:42:09.245Z,80.48
2018-09-11T04:44:43.793Z,80.38
2018-09-11T04:47:18.480Z,80.19
2018-09-11T04:49:53.104Z,80.67
2018-09-11T04:52:27.750Z,80.84
2018-09-11T04:55:02.205Z,80.13
2018-09-11T04:57:36.824Z,80.62
2018-09-11T05:00:11.562Z,80.22
2018-09-11T05:02:46.185Z,79.76
2018-09-11T05:05:20.739Z,80.48
2018-09-11T05:07:55.288Z,80.65
2018-09-11T05:10:29.860Z,80.41
2018-09-11T05:13:04.366Z,80.57
2018-09-11T05:15:39.038Z,80.12
2018-09-11T05:18:13.641Z,80.46
2018-09-11T05:20:48.360Z,80.21
2018-09-11T05:23:23.047Z,80.18
2018-09-11T05:25:57.677Z,80.13
2018-09-11T05:28:32.309Z,80.22
2018-09-11T05:31:06.800Z,80.03
2018-09-11T05:33:41.400Z,80.37
2018-09-11T05:36:15.820Z,79.84
2018-09-11T05:38:50.595Z,79.89
2018-09-11T05:41:25.293Z,80.12
2018-09-11T05:43:59.869Z,80.56
2018-09-11T05:46:34.337Z,80.17
2018-09-11T05:49:08.832Z,80.78
2018-09-11T05:51:43.544Z,80.51
2018-09-11T05:54:18.032Z,80.71
2018-09-11T05:56:52.676Z,80.68
2018-09-11T05:59:27.364Z,80.28
2018-09-11T06:02:02.126Z,79.81
2018-09-11T06:04:36.796Z,80.33
2018-09-11T06:07:11.364Z,79.32
2018-09-11T06:09:45.817Z,79.49
2018-09-11T06:12:20.441Z,78.85
2018-09-11T06:14:55.033Z,77.94
2018-09-11T06:17:29.680Z,77.80
2018-09-11T06:20:04.312Z,77.98
2018-09-11T06:22:38.960Z,77.51
2018-09-11T06:25:13.552Z,76.84
2018-09-11T06:27:48.214Z,74.42
2018-09-11T06:30:22.880Z,73.07
2018-09-11T06:32:57.405Z,69.44
2018-09-11T06:35:32.170Z,68.07
2018-09-11T06:38:06.948Z,61.78
2018-09-11T06:40:41.529Z,59.65
2018-09-11T06:43:16.335Z,64.34
2018-09-11T06:45:51.062Z,68.28
2018-09-11T06:48:25.697Z,69.43
2018-09-11T06:51:00.297Z,70.50
2018-09-11T06:53:34.741Z,69.13
2018-09-11T06:56:09.252Z,62.78
2018-09-11T06:58:43.730Z,54.22
2018-09-11T07:01:18.493Z,48.29
2018-09-11T07:03:53.009Z,44.47
2018-09-11T07:06:27.621Z,37.12
2018-09-11T07:09:02.252Z,40.69
2018-09-11T07:11:36.916Z,46.64
2018-09-11T07:14:11.445Z,40.63
2018-09-11T07:16:46.123Z,41.14
2018-09-11T07:19:21.536Z,37.64
2018-09-11T07:21:56.139Z,41.87
2018-09-11T07:24:30.684Z,44.70
2018-09-11T07:27:05.470Z,48.83
2018-09-11T07:29:40.473Z,56.03
2018-09-11T07:32:15.006Z,57.93
2018-09-11T07:34:49.464Z,60.99
2018-09-11T07:37:23.986Z,61.56
2018-09-11T07:39:58.992Z,61.20
2018-09-11T07:42:33.508Z,61.78
2018-09-11T07:45:08.033Z,63.75
2018-09-11T07:47:42.756Z,63.05
2018-09-11T07:50:17.373Z,64.70
2018-09-11T07:52:51.878Z,66.23
2018-09-11T07:55:26.325Z,66.60
2018-09-11T07:58:01.060Z,67.55
2018-09-11T08:00:35.919Z,68.13
2018-09-11T08:03:10.488Z,66.21
2018-09-11T08:05:45.006Z,66.60
2018-09-11T08:08:19.665Z,64.22
2018-09-11T08:10:54.185Z,64.34
2018-09-11T08:13:28.666Z,63.13
2018-09-11T08:16:03.433Z,62.88
2018-09-11T08:18:37.981Z,63.51
2018-09-11T08:21:12.556Z,64.63
2018-09-11T08:23:47.134Z,62.61
2018-09-11T08:26:21.726Z,59.25
2018-09-11T08:28:56.753Z,59.24
2018-09-11T08:31:31.449Z,61.84
2018-09-11T08:34:05.977Z,59.30
2018-09-11T08:36:40.581Z,60.84
2018-09-11T08:39:15.105Z,60.02
2018-09-11T08:41:49.777Z,61.30
2018-09-11T08:44:24.411Z,62.89
2018-09-11T08:46:59.061Z,63.11
2018-09-11T08:49:33.716Z,63.30
2018-09-11T08:52:08.478Z,63.29
2018-09-11T08:54:43.118Z,63.24
2018-09-11T08:57:17.708Z,63.25
2018-09-11T08:59:52.428Z,62.61
2018-09-11T09:02:27.077Z,61.44
2018-09-11T09:05:01.957Z,58.17
2018-09-11T09:07:36.721Z,54.67
2018-09-11T09:10:11.227Z,54.77
2018-09-11T09:12:45.585Z,54.38
2018-09-11T09:15:19.980Z,55.38
2018-09-11T09:17:54.518Z,54.35
2018-09-11T09:20:29.138Z,53.19
2018-09-11T09:23:03.857Z,53.23
2018-09-11T09:25:38.333Z,54.82
2018-09-11T09:28:12.939Z,54.82
2018-09-11T09:30:47.682Z,53.55
2018-09-11T09:33:22.919Z,52.66
2018-09-11T09:35:57.420Z,53.78
2018-09-11T09:38:32.056Z,54.58
2018-09-11T09:41:06.649Z,54.93
2018-09-11T09:43:41.689Z,56.74
2018-09-11T09:46:16.213Z,57.05
2018-09-11T09:48:50.685Z,57.45
2018-09-11T09:51:25.568Z,58.29
2018-09-11T09:54:00.184Z,57.68
2018-09-11T09:56:35.165Z,58.21
2018-09-11T09:59:09.864Z,57.62
2018-09-11T10:01:49.800Z,58.00
2018-09-11T10:04:24.713Z,56.52
2018-09-11T10:06:59.225Z,56.17
2018-09-11T10:09:34.008Z,55.72
2018-09-11T10:12:08.603Z,55.80
2018-09-11T10:14:43.333Z,56.06
2018-09-11T10:17:17.896Z,56.20
2018-09-11T10:19:52.473Z,56.26
2018-09-11T10:22:27.113Z,55.88
2018-09-11T10:25:01.613Z,55.81
2018-09-11T10:27:36.103Z,54.78
2018-09-11T10:30:10.599Z,54.28
2018-09-11T10:32:45.528Z,54.62
2018-09-11T10:35:20.177Z,54.69
2018-09-11T10:37:54.957Z,54.25
2018-09-11T10:40:29.623Z,54.09
2018-09-11T10:43:04.377Z,52.80
2018-09-11T10:45:39.222Z,52.71
2018-09-11T10:48:13.874Z,51.61
2018-09-11T10:50:48.378Z,50.87
2018-09-11T10:53:22.985Z,49.38
2018-09-11T10:55:57.544Z,49.05
2018-09-11T10:58:32.181Z,49.23
2018-09-11T11:01:06.893Z,47.78
2018-09-11T11:03:41.389Z,46.88
2018-09-11T11:06:16.100Z,45.92
2018-09-11T11:08:50.617Z,45.37
2018-09-11T11:11:25.293Z,45.91
2018-09-11T11:14:00.021Z,47.40
2018-09-11T11:16:34.617Z,47.08
2018-09-11T11:19:09.090Z,46.97
2018-09-11T11:21:43.748Z,47.08
2018-09-11T11:24:23.884Z,46.00
2018-09-11T11:26:58.264Z,45.64
2018-09-11T11:29:32.925Z,44.80
2018-09-11T11:32:07.772Z,45.57
2018-09-11T11:34:42.496Z,45.60
2018-09-11T11:37:17.274Z,45.53
2018-09-11T11:39:51.816Z,47.47
2018-09-11T11:42:26.421Z,47.81
2018-09-11T11:45:01.050Z,48.91
2018-09-11T11:47:35.661Z,49.37
2018-09-11T11:50:10.373Z,49.41
2018-09-11T11:52:45.377Z,49.73
2018-09-11T11:55:19.868Z,50.07
2018-09-11T11:57:54.602Z,49.84
2018-09-11T12:00:29.361Z,49.78
2018-09-11T12:03:03.975Z,49.44
2018-09-11T12:05:38.673Z,49.47
2018-09-11T12:08:13.376Z,49.48
2018-09-11T12:10:47.901Z,48.88
2018-09-11T12:13:22.533Z,48.69
2018-09-11T12:15:57.312Z,49.11
2018-09-11T12:18:32.117Z,48.05
2018-09-11T12:21:06.664Z,48.13
2018-09-11T12:23:41.417Z,47.80
2018-09-11T12:26:16.026Z,47.94
2018-09-11T12:28:50.605Z,47.35
2018-09-11T12:31:25.860Z,46.57
2018-09-11T12:34:00.980Z,47.67
2018-09-11T12:36:37.738Z,48.88
2018-09-11T12:39:12.303Z,47.75
2018-09-11T12:41:46.917Z,47.53
2018-09-11T12:44:21.457Z,46.82
2018-09-11T12:46:56.418Z,45.71
2018-09-11T12:49:31.014Z,46.50
2018-09-11T12:52:05.750Z,47.08
2018-09-11T12:54:40.341Z,48.29
2018-09-11T12:57:14.957Z,46.00
2018-09-11T12:59:49.620Z,46.29
2018-09-11T13:02:31.270Z,45.16
2018-09-11T13:05:13.258Z,44.71
2018-09-11T13:07:47.917Z,45.35
2018-09-11T13:10:22.761Z,44.82
2018-09-11T13:12:57.432Z,44.99
2018-09-11T13:15:31.998Z,45.00
2018-09-11T13:18:06.646Z,43.07
2018-09-11T13:20:41.273Z,43.73
2018-09-11T13:23:15.793Z,44.34
2018-09-11T13:25:50.481Z,44.66
2018-09-11T13:28:25.180Z,43.88
2018-09-11T13:30:59.776Z,44.26
2018-09-11T13:33:36.534Z,43.60
2018-09-11T13:36:11.341Z,43.60
2018-09-11T13:38:46.077Z,44.27
2018-09-11T13:41:20.468Z,43.99
2018-09-11T13:43:55.018Z,44.42
2018-09-11T13:46:29.593Z,44.58
2018-09-11T13:49:04.257Z,44.42
2018-09-11T13:51:38.736Z,44.16
2018-09-11T13:54:13.405Z,44.34
2018-09-11T13:56:48.322Z,43.48
2018-09-11T13:59:22.914Z,42.38
2018-09-11T14:01:57.430Z,42.24
2018-09-11T14:04:31.972Z,43.80
2018-09-11T14:07:06.904Z,43.87
2018-09-11T14:09:41.346Z,43.19
2018-09-11T14:12:16.041Z,42.85
2018-09-11T14:14:50.509Z,43.35
2018-09-11T14:17:24.967Z,43.29
2018-09-11T14:19:59.597Z,42.59
2018-09-11T14:22:34.249Z,42.42
2018-09-11T14:25:08.809Z,42.64
2018-09-11T14:27:43.392Z,41.60
2018-09-11T14:30:17.934Z,40.94
2018-09-11T14:32:52.584Z,41.23
2018-09-11T14:35:27.142Z,39.45
2018-09-11T14:38:02.066Z,38.80
2018-09-11T14:40:36.512Z,37.57
2018-09-11T14:43:11.409Z,35.67
2018-09-11T14:45:46.115Z,33.90
2018-09-11T14:48:20.713Z,32.27
2018-09-11T14:50:55.339Z,33.80
2018-09-11T14:53:29.780Z,32.22
2018-09-11T14:56:04.496Z,31.82
2018-09-11T14:58:39.093Z,30.91
2018-09-11T15:01:15.878Z,29.97
2018-09-11T15:03:50.409Z,30.63
2018-09-11T15:06:24.874Z,31.33
2018-09-11T15:08:59.693Z,31.96
2018-09-11T15:11:34.058Z,34.82
2018-09-11T15:14:08.675Z,34.12
2018-09-11T15:16:43.232Z,34.94
2018-09-11T15:19:19.016Z,35.74
2018-09-11T15:21:53.416Z,35.00
2018-09-11T15:24:28.022Z,35.27
2018-09-11T15:27:04.002Z,36.40
2018-09-11T15:29:38.786Z,36.32
2018-09-11T15:32:13.396Z,35.92
2018-09-11T15:34:47.854Z,35.38
2018-09-11T15:37:22.480Z,36.18
2018-09-11T15:39:56.792Z,35.20
2018-09-11T15:42:31.753Z,36.66
2018-09-11T15:45:06.285Z,36.04
2018-09-11T15:47:40.685Z,35.96
2018-09-11T15:50:15.197Z,35.54
2018-09-11T15:52:49.869Z,36.42
2018-09-11T15:55:24.464Z,35.06
2018-09-11T15:57:58.984Z,35.01
2018-09-11T16:00:33.699Z,34.89
2018-09-11T16:03:08.235Z,33.95
2018-09-11T16:05:43.129Z,33.72
2018-09-11T16:08:17.736Z,34.41
2018-09-11T16:10:52.269Z,34.52
2018-09-11T16:13:26.722Z,33.97
2018-09-11T16:16:01.137Z,34.63
2018-09-11T16:18:35.848Z,34.57
2018-09-11T16:21:10.489Z,36.33
2018-09-11T16:23:45.196Z,37.64
2018-09-11T16:26:19.945Z,37.78
2018-09-11T16:28:54.590Z,38.63
2018-09-11T16:31:29.705Z,39.56
2018-09-11T16:34:04.252Z,40.47
2018-09-11T16:36:38.718Z,40.53
2018-09-11T16:39:13.765Z,40.49
2018-09-11T16:41:48.385Z,41.03
2018-09-11T16:44:22.837Z,41.01
2018-09-11T16:46:57.280Z,41.03
2018-09-11T16:49:32.041Z,42.54
2018-09-11T16:52:06.701Z,41.30
2018-09-11T16:54:41.484Z,41.65
2018-09-11T16:57:15.967Z,43.24
2018-09-11T16:59:50.447Z,41.64
2018-09-11T17:02:25.107Z,42.43
2018-09-11T17:04:59.846Z,44.04
2018-09-11T17:07:34.481Z,43.06
2018-09-11T17:10:09.045Z,43.76
2018-09-11T17:12:43.972Z,43.28
2018-09-11T17:15:18.413Z,45.13
2018-09-11T17:17:53.376Z,46.01
2018-09-11T17:20:27.956Z,44.94
2018-09-11T17:23:02.572Z,45.32
2018-09-11T17:25:37.178Z,45.28
2018-09-11T17:28:11.825Z,45.09
2018-09-11T17:30:46.426Z,46.16
2018-09-11T17:33:21.005Z,45.49
2018-09-11T17:35:55.718Z,46.27
2018-09-11T17:38:30.311Z,46.15
2018-09-11T17:41:05.004Z,46.07
2018-09-11T17:43:39.513Z,46.59
2018-09-11T17:46:14.073Z,47.12
2018-09-11T17:48:48.751Z,47.49
2018-09-11T17:51:23.113Z,47.04
2018-09-11T17:53:57.985Z,47.46
2018-09-11T17:56:32.624Z,48.79
2018-09-11T17:59:07.060Z,47.48
2018-09-11T18:01:41.790Z,49.17
2018-09-11T18:04:16.205Z,48.06
2018-09-11T18:06:51.040Z,48.76
2018-09-11T18:09:25.679Z,48.55
2018-09-11T18:12:00.262Z,48.23
2018-09-11T18:14:35.061Z,48.34
2018-09-11T18:17:09.600Z,50.04
2018-09-11T18:19:44.053Z,49.41
2018-09-11T18:22:18.676Z,50.45
2018-09-11T18:24:53.257Z,49.83
2018-09-11T18:27:27.985Z,50.68
2018-09-11T18:30:02.661Z,50.72
2018-09-11T18:32:37.637Z,51.05
2018-09-11T18:35:12.161Z,50.79
2018-09-11T18:37:46.861Z,51.94
2018-09-11T18:40:21.399Z,50.56
2018-09-11T18:42:56.087Z,51.40
2018-09-11T18:45:30.677Z,52.63
2018-09-11T18:48:06.274Z,52.69
2018-09-11T18:50:41.135Z,52.94
2018-09-11T18:53:15.760Z,53.69
2018-09-11T18:55:50.310Z,54.09
2018-09-11T18:58:25.046Z,54.32
2018-09-11T19:00:59.618Z,54.89
2018-09-11T19:03:34.253Z,54.85
2018-09-11T19:06:08.805Z,55.11
2018-09-11T19:08:43.456Z,54.67
2018-09-11T19:11:17.972Z,55.36
2018-09-11T19:13:53.418Z,54.90
2018-09-11T19:16:27.970Z,54.86
2018-09-11T19:19:02.500Z,55.17
2018-09-11T19:21:37.309Z,55.53
2018-09-11T19:24:11.968Z,55.13
2018-09-11T19:26:46.671Z,55.02
2018-09-11T19:29:21.289Z,55.41
2018-09-11T19:31:56.038Z,55.46
2018-09-11T19:34:30.573Z,55.55
2018-09-11T19:37:05.548Z,56.24
2018-09-11T19:39:40.889Z,55.63
2018-09-11T19:42:15.694Z,55.68
2018-09-11T19:44:50.261Z,55.41
2018-09-11T19:47:25.258Z,55.01
2018-09-11T19:49:59.728Z,54.49
2018-09-11T19:52:34.345Z,55.17
2018-09-11T19:55:08.916Z,54.85
2018-09-11T19:57:43.601Z,55.04
2018-09-11T20:00:18.346Z,55.45
2018-09-11T20:02:52.865Z,54.98
2018-09-11T20:05:27.489Z,56.28
2018-09-11T20:08:02.097Z,55.99
2018-09-11T20:10:36.669Z,56.25
2018-09-11T20:13:11.413Z,55.54
2018-09-11T20:15:45.948Z,55.80
2018-09-11T20:18:20.385Z,55.90
2018-09-11T20:20:55.105Z,56.28
2018-09-11T20:23:29.723Z,56.24
2018-09-11T20:26:04.311Z,56.69
2018-09-11T20:28:39.009Z,56.39
2018-09-11T20:31:13.778Z,56.60
2018-09-11T20:33:48.525Z,57.10
2018-09-11T20:36:23.142Z,56.89
2018-09-11T20:38:57.661Z,57.28
2018-09-11T20:41:32.214Z,57.01
2018-09-11T20:44:07.054Z,57.18
2018-09-11T20:46:41.684Z,58.00
2018-09-11T20:49:16.300Z,58.39
2018-09-11T20:51:50.925Z,58.21
2018-09-11T20:54:25.655Z,58.33
2018-09-11T20:57:00.497Z,57.87
2018-09-11T20:59:36.701Z,58.61
2018-09-11T21:05:10.786Z,58.18
2018-09-11T21:07:45.515Z,58.35
2018-09-11T21:10:20.240Z,58.65
2018-09-11T21:12:54.897Z,58.99
2018-09-11T21:15:29.529Z,59.33
2018-09-11T21:18:04.037Z,58.92
2018-09-11T21:20:38.572Z,59.07
2018-09-11T21:23:13.209Z,59.64
2018-09-11T21:25:47.765Z,59.00
2018-09-11T21:28:22.412Z,59.46
2018-09-11T21:30:57.473Z,59.58
2018-09-11T21:33:32.041Z,59.43
2018-09-11T21:36:06.783Z,59.30
2018-09-11T21:38:41.445Z,59.51
2018-09-11T21:41:16.081Z,59.63
2018-09-11T21:43:50.787Z,60.01
2018-09-11T21:46:25.636Z,60.28
2018-09-11T21:49:00.405Z,60.56
2018-09-11T21:51:34.960Z,60.86
2018-09-11T21:54:09.761Z,61.17
2018-09-11T21:56:44.280Z,61.01
2018-09-11T21:59:18.935Z,61.20
2018-09-11T22:01:54.200Z,61.98
2018-09-11T22:04:28.809Z,62.05
2018-09-11T22:07:03.369Z,62.07
2018-09-11T22:09:38.517Z,62.20
2018-09-11T22:12:13.077Z,61.77
2018-09-11T22:14:47.494Z,62.34
2018-09-11T22:17:22.154Z,62.53
2018-09-11T22:19:56.875Z,62.81
2018-09-11T22:22:31.493Z,62.91
2018-09-11T22:25:06.004Z,63.04
2018-09-11T22:27:40.662Z,63.04
2018-09-11T22:30:15.310Z,63.13
2018-09-11T22:32:49.852Z,63.80
2018-09-11T22:35:24.393Z,63.38
2018-09-11T22:37:59.184Z,64.18
2018-09-11T22:40:33.857Z,63.68
2018-09-11T22:43:08.715Z,64.08
2018-09-11T22:45:43.212Z,64.00
2018-09-11T22:48:17.888Z,64.48
2018-09-11T22:50:52.590Z,64.72
2018-09-11T22:53:27.305Z,64.84
2018-09-11T22:56:02.019Z,65.32
2018-09-11T22:58:36.705Z,65.56
2018-09-11T23:01:11.420Z,65.54
2018-09-11T23:03:46.063Z,65.64
2018-09-11T23:06:20.888Z,65.59
2018-09-11T23:08:55.630Z,66.24
2018-09-11T23:11:30.226Z,66.54
2018-09-11T23:14:04.818Z,66.21
2018-09-11T23:16:39.440Z,66.66
2018-09-11T23:19:14.029Z,66.82
2018-09-11T23:21:48.669Z,65.98
2018-09-11T23:24:23.158Z,65.87
2018-09-11T23:26:57.985Z,66.66
2018-09-11T23:29:32.590Z,66.65
2018-09-11T23:32:07.631Z,66.26
2018-09-11T23:34:42.457Z,66.66
2018-09-11T23:37:17.436Z,66.92
2018-09-11T23:39:52.181Z,66.52
2018-09-11T23:42:26.695Z,67.00
2018-09-11T23:45:01.341Z,66.74
2018-09-11T23:47:35.953Z,67.38
2018-09-11T23:50:10.552Z,67.39
2018-09-11T23:52:45.511Z,67.17
2018-09-11T23:55:19.958Z,67.38
2018-09-11T23:57:54.622Z,67.62
